Epsom, New Hampshire
Current Conditions -  °F | °C
As of 1:51 PM on Saturday 25 Oct 2014 (Local Time) from KCON Reporting Station
Clear Clear  
Wind Chill: 63°   Ceiling: Unl
Heat Index: 63°   Visibility: 10mi
Dew Point: 35°   Wind: 7mph
Humidity: 35%   Direction: NA
Pressure: 29.62"   Gusts: NA
Location:  43.22°N, 71.33°W
Report Text: KCON 251751Z AUTO VRB06KT 10SM CLR 17/02 A2962 RMK AO2 SLP031 T01720017 10183 20028 58027
Loading
Personal Weather Stations






























Interactive Weather Map
Tropical Storm Tracking
New forecast layout! Learn more

10-Day Weather Forecast

Advertisements
Track Severe Weather on mobile